Time;durP1;ratioP1;P1;durP2;ratioP2;P2;SDS_P1;SDS_P2;PMS_P1;PMS_P2;Temp;Humidity;BMP_temperature;BMP_pressure;BME280_temperature;BME280_humidity;BME280_pressure;Samples;Min_cycle;Max_cycle;Signal;HPM_P1;HPM_P2
2023/01/25 00:01:53;;;;;;;66.30;49.45;;;;;;;-2.31;100.00;96952.78;5085121;28;20026;-72
2023/01/25 00:04:20;;;;;;;51.15;42.33;;;;;;;-2.28;100.00;96963.06;5083809;28;20048;-66
2023/01/25 00:06:46;;;;;;;44.38;37.63;;;;;;;-2.25;100.00;96951.84;5080090;28;20108;-66
2023/01/25 00:09:12;;;;;;;44.58;38.97;;;;;;;-2.23;100.00;96952.66;5064372;28;20111;-68
2023/01/25 00:11:37;;;;;;;48.47;40.78;;;;;;;-2.23;100.00;96950.06;5082851;28;20051;-68
2023/01/25 00:14:04;;;;;;;66.97;47.33;;;;;;;-2.19;100.00;96960.28;5084220;28;20032;-68
2023/01/25 00:16:29;;;;;;;64.65;50.38;;;;;;;-2.24;100.00;96959.53;5083461;28;20021;-69
2023/01/25 00:18:55;;;;;;;63.25;47.78;;;;;;;-2.29;100.00;96951.03;5086563;28;20054;-68
2023/01/25 00:21:22;;;;;;;57.83;45.42;;;;;;;-2.32;100.00;96946.81;5083906;28;20050;-68
2023/01/25 00:23:48;;;;;;;47.90;39.97;;;;;;;-2.36;100.00;96945.16;5079206;28;20035;-69
2023/01/25 00:26:14;;;;;;;48.25;40.85;;;;;;;-2.33;100.00;96939.91;5083524;28;20016;-63
2023/01/25 00:28:39;;;;;;;53.80;45.58;;;;;;;-2.29;100.00;96934.72;5080069;28;20021;-66
2023/01/25 00:31:06;;;;;;;52.85;43.75;;;;;;;-2.30;100.00;96928.69;5084160;28;20027;-66
2023/01/25 00:33:39;;;;;;;55.75;44.55;;;;;;;-2.29;100.00;96934.72;5073363;28;20032;-65
2023/01/25 00:36:30;;;;;;;54.47;42.35;;;;;;;-2.31;100.00;96927.88;5079153;28;20505;-66
2023/01/25 00:38:56;;;;;;;63.45;48.33;;;;;;;-2.28;100.00;96933.84;5086086;28;20040;-66
2023/01/25 00:41:22;;;;;;;53.60;43.63;;;;;;;-2.25;100.00;96926.03;5085910;28;20485;-66
2023/01/25 00:43:47;;;;;;;62.95;45.78;;;;;;;-2.24;100.00;96930.31;5082203;28;20046;-72
2023/01/25 00:46:17;;;;;;;66.72;49.17;;;;;;;-2.24;100.00;96925.16;5080262;28;20398;-66
2023/01/25 00:48:42;;;;;;;63.60;47.22;;;;;;;-2.25;100.00;96916.53;5080150;28;20028;-63
2023/01/25 00:51:08;;;;;;;60.33;45.80;;;;;;;-2.23;100.00;96909.59;5086251;28;20028;-63
2023/01/25 00:53:33;;;;;;;53.58;40.92;;;;;;;-2.19;100.00;96915.56;5084352;28;20080;-62
2023/01/25 00:55:59;;;;;;;45.60;38.45;;;;;;;-2.15;100.00;96927.50;5085069;28;20144;-63
2023/01/25 00:58:24;;;;;;;43.65;36.35;;;;;;;-2.14;100.00;96924.03;5087082;28;20737;-63
2023/01/25 01:00:53;;;;;;;43.75;36.55;;;;;;;-2.18;100.00;96918.13;5084878;28;20024;-63
2023/01/25 01:03:19;;;;;;;48.05;37.22;;;;;;;-2.20;100.00;96919.91;5088341;28;20027;-62
2023/01/25 01:05:45;;;;;;;46.90;38.40;;;;;;;-2.17;100.00;96921.53;5087447;28;20110;-61
2023/01/25 01:08:12;;;;;;;44.78;37.17;;;;;;;-2.18;100.00;96917.25;5081226;28;20099;-62
2023/01/25 01:10:38;;;;;;;52.83;41.08;;;;;;;-2.17;100.00;96918.97;5088902;28;20029;-61
2023/01/25 01:13:03;;;;;;;52.40;41.22;;;;;;;-2.12;100.00;96914.53;5082164;28;20016;-61
2023/01/25 01:15:29;;;;;;;66.78;48.92;;;;;;;-2.11;100.00;96915.41;5079523;28;20040;-62
2023/01/25 01:17:54;;;;;;;56.83;43.65;;;;;;;-2.14;100.00;96912.91;5083757;28;20111;-61
2023/01/25 01:20:20;;;;;;;51.28;40.80;;;;;;;-2.12;100.00;96911.97;5088372;28;20111;-61
2023/01/25 01:22:45;;;;;;;56.25;42.25;;;;;;;-2.11;100.00;96918.81;5087289;28;20095;-62
2023/01/25 01:25:12;;;;;;;56.63;42.55;;;;;;;-2.11;100.00;96913.66;5085611;28;20641;-62
2023/01/25 01:27:37;;;;;;;56.45;41.97;;;;;;;-2.09;100.00;96911.91;5085332;28;20532;-62
2023/01/25 01:30:03;;;;;;;66.05;46.28;;;;;;;-2.07;100.00;96905.00;5079608;28;20024;-62
2023/01/25 01:32:28;;;;;;;63.72;45.40;;;;;;;-2.06;100.00;96901.53;5087247;28;20039;-62
2023/01/25 01:34:54;;;;;;;48.85;39.03;;;;;;;-2.03;100.00;96890.25;5089760;28;20374;-62
2023/01/25 01:37:19;;;;;;;47.28;39.35;;;;;;;-2.03;100.00;96896.28;5087147;28;20586;-61
2023/01/25 01:39:44;;;;;;;46.65;38.70;;;;;;;-2.05;100.00;96898.06;5084426;28;20541;-62
2023/01/25 01:42:10;;;;;;;50.97;41.47;;;;;;;-2.05;100.00;96892.03;5086569;28;20459;-69
2023/01/25 01:44:50;;;;;;;44.75;36.17;;;;;;;-2.04;100.00;96893.72;5088074;28;20146;-61
2023/01/25 01:47:21;;;;;;;46.00;37.78;;;;;;;-2.02;100.00;96900.56;5084242;28;20032;-60
2023/01/25 01:49:58;;;;;;;48.60;40.05;;;;;;;-2.04;100.00;96904.91;5087715;28;20020;-60
2023/01/25 01:52:29;;;;;;;45.22;37.35;;;;;;;-2.03;100.00;96887.69;5082924;28;20035;-61
2023/01/25 01:55:04;;;;;;;44.33;37.80;;;;;;;-2.02;100.00;96887.66;5085219;28;20402;-61
2023/01/25 01:57:46;;;;;;;49.47;37.60;;;;;;;-2.02;100.00;96885.06;5086675;28;20026;-61
2023/01/25 02:00:28;;;;;;;47.60;38.75;;;;;;;-2.00;100.00;96885.03;5086474;28;20154;-67
2023/01/25 02:02:54;;;;;;;50.33;39.53;;;;;;;-1.99;100.00;96885.88;5085970;28;20071;-62
2023/01/25 02:05:27;;;;;;;52.00;40.38;;;;;;;-1.97;100.00;96886.69;5088212;28;20023;-69
2023/01/25 02:07:54;;;;;;;62.33;44.70;;;;;;;-1.96;100.00;96890.97;5076599;28;20056;-69
2023/01/25 02:10:22;;;;;;;49.38;39.65;;;;;;;-1.95;100.00;96887.50;5089435;28;20035;-69
2023/01/25 02:12:48;;;;;;;45.58;38.05;;;;;;;-1.98;100.00;96883.28;5084552;28;20063;-69
2023/01/25 02:15:13;;;;;;;48.10;38.05;;;;;;;-1.97;100.00;96889.28;5089057;28;20052;-69
2023/01/25 02:17:40;;;;;;;44.15;37.53;;;;;;;-2.02;100.00;96886.78;5081266;28;20054;-69
2023/01/25 02:20:21;;;;;;;41.85;36.13;;;;;;;-2.03;100.00;96882.50;5086836;28;20028;-63
2023/01/25 02:22:49;;;;;;;40.38;34.63;;;;;;;-2.05;100.00;96885.16;5081446;28;20494;-63
2023/01/25 02:25:16;;;;;;;47.40;36.72;;;;;;;-2.02;100.00;96889.38;5085587;28;20031;-62
2023/01/25 02:27:47;;;;;;;82.30;49.67;;;;;;;-2.01;100.00;96888.50;5071474;28;20743;-62
2023/01/25 02:30:12;;;;;;;61.92;42.78;;;;;;;-2.00;100.00;96889.34;5081729;28;20027;-62
2023/01/25 02:32:38;;;;;;;45.97;35.92;;;;;;;-1.97;100.00;96892.72;5079851;28;20012;-62
2023/01/25 02:35:04;;;;;;;43.97;36.55;;;;;;;-1.96;100.00;96885.81;5081104;28;20486;-62
2023/01/25 02:37:30;;;;;;;45.13;36.75;;;;;;;-1.96;100.00;96884.09;5085659;28;20115;-62
2023/01/25 02:39:55;;;;;;;40.50;35.60;;;;;;;-2.02;100.00;96884.22;5086104;28;20134;-61
2023/01/25 02:42:20;;;;;;;44.15;35.75;;;;;;;-1.97;100.00;96882.41;5079638;28;20421;-66
2023/01/25 02:44:47;;;;;;;84.20;55.92;;;;;;;-2.03;100.00;96880.78;5082314;28;20409;-66
2023/01/25 02:47:13;;;;;;;62.42;43.85;;;;;;;-2.06;100.00;96877.44;5078653;28;20029;-66
2023/01/25 02:49:38;;;;;;;74.97;48.47;;;;;;;-2.08;100.00;96879.19;5083770;28;20543;-66
2023/01/25 02:52:04;;;;;;;59.42;44.72;;;;;;;-2.10;100.00;96873.22;5081059;28;20049;-66
2023/01/25 02:54:30;;;;;;;45.08;38.05;;;;;;;-2.11;100.00;96871.53;5077664;28;20399;-66
2023/01/25 02:56:55;;;;;;;41.42;35.78;;;;;;;-2.14;100.00;96875.03;5079879;28;20028;-66
2023/01/25 02:59:21;;;;;;;41.80;35.55;;;;;;;-2.19;100.00;96861.38;5084641;28;20034;-71
2023/01/25 03:01:46;;;;;;;40.53;34.47;;;;;;;-2.16;100.00;96853.56;5083948;28;20379;-66
2023/01/25 03:04:12;;;;;;;38.85;32.55;;;;;;;-2.08;100.00;96858.56;5078682;28;20111;-66
2023/01/25 03:06:38;;;;;;;63.53;43.47;;;;;;;-2.12;100.00;96859.50;5082525;28;20039;-66
2023/01/25 03:09:05;;;;;;;65.82;45.35;;;;;;;-2.10;100.00;96853.44;5087394;28;20020;-66
2023/01/25 03:11:30;;;;;;;56.63;43.15;;;;;;;-2.10;100.00;96862.91;5086293;28;20402;-66
2023/01/25 03:13:56;;;;;;;52.90;40.97;;;;;;;-2.10;100.00;96853.44;5087918;28;20020;-66
2023/01/25 03:16:21;;;;;;;44.40;34.60;;;;;;;-2.10;100.00;96850.00;5089227;28;20031;-66
2023/01/25 03:18:47;;;;;;;39.42;35.20;;;;;;;-2.02;100.00;96860.97;5082338;28;20043;-67
2023/01/25 03:21:15;;;;;;;42.50;34.97;;;;;;;-2.05;100.00;96858.47;5077074;28;20050;-66
2023/01/25 03:23:42;;;;;;;40.05;33.88;;;;;;;-2.08;100.00;96861.13;5079699;28;20441;-67
2023/01/25 03:26:11;;;;;;;40.45;35.55;;;;;;;-2.09;100.00;96862.00;5089695;28;20059;-67
2023/01/25 03:28:38;;;;;;;39.20;34.72;;;;;;;-2.08;100.00;96867.16;5085229;28;20039;-66
2023/01/25 03:31:04;;;;;;;41.22;35.45;;;;;;;-2.11;100.00;96856.88;5085857;28;20024;-67
2023/01/25 03:33:30;;;;;;;39.20;35.00;;;;;;;-2.10;100.00;96861.19;5077564;28;20024;-67
2023/01/25 03:35:56;;;;;;;44.65;37.88;;;;;;;-2.08;100.00;96853.38;5077615;28;20040;-67
2023/01/25 03:38:22;;;;;;;43.75;36.15;;;;;;;-2.06;100.00;96849.03;5087557;28;20121;-61
2023/01/25 03:40:47;;;;;;;43.22;37.22;;;;;;;-2.07;100.00;96850.78;5075067;28;20040;-61
2023/01/25 03:43:13;;;;;;;42.47;37.28;;;;;;;-2.11;100.00;96845.72;5085309;28;20020;-61
2023/01/25 03:45:38;;;;;;;41.13;35.28;;;;;;;-2.10;100.00;96840.53;5078712;28;20479;-61
2023/01/25 03:48:04;;;;;;;41.85;36.13;;;;;;;-2.08;100.00;96840.50;5082412;28;20024;-62
2023/01/25 03:50:30;;;;;;;44.55;37.55;;;;;;;-2.05;100.00;96835.25;5075541;28;20322;-61
2023/01/25 03:53:01;;;;;;;43.75;36.33;;;;;;;-2.03;100.00;96831.75;5079397;28;20024;-62
2023/01/25 03:55:26;;;;;;;39.90;35.30;;;;;;;-2.00;100.00;96828.22;5080823;28;20091;-61
2023/01/25 03:57:52;;;;;;;42.42;36.20;;;;;;;-1.99;100.00;96835.13;5085877;28;20533;-71
2023/01/25 04:00:18;;;;;;;42.22;36.60;;;;;;;-1.98;100.00;96836.81;5088044;28;20436;-61
2023/01/25 04:02:44;;;;;;;43.55;36.97;;;;;;;-2.00;100.00;96823.06;5075181;28;20017;-61
2023/01/25 04:05:10;;;;;;;43.40;35.50;;;;;;;-2.02;100.00;96819.69;5080597;28;20111;-61
2023/01/25 04:07:36;;;;;;;44.17;37.10;;;;;;;-1.99;100.00;96826.53;5073426;28;20526;-60
2023/01/25 04:10:02;;;;;;;45.28;39.00;;;;;;;-2.04;100.00;96821.47;5083174;28;20059;-60
2023/01/25 04:12:27;;;;;;;40.75;36.45;;;;;;;-2.05;100.00;96820.63;5081601;28;20060;-61
2023/01/25 04:14:52;;;;;;;45.13;37.78;;;;;;;-2.07;100.00;96811.22;5077743;28;20600;-63
2023/01/25 04:17:18;;;;;;;42.38;37.83;;;;;;;-2.09;100.00;96811.25;5075891;28;20027;-66
2023/01/25 04:19:43;;;;;;;44.88;37.85;;;;;;;-2.08;100.00;96800.06;5076056;28;20024;-62
2023/01/25 04:22:08;;;;;;;43.60;37.20;;;;;;;-2.08;100.00;96805.22;5084903;28;20031;-62
2023/01/25 04:24:34;;;;;;;45.83;38.58;;;;;;;-2.12;100.00;96803.56;5087031;28;20036;-62
2023/01/25 04:26:59;;;;;;;47.13;37.30;;;;;;;-2.12;100.00;96792.41;5088850;28;20090;-62
2023/01/25 04:29:24;;;;;;;44.58;36.35;;;;;;;-2.14;100.00;96800.19;5088899;28;20053;-62
2023/01/25 04:31:50;;;;;;;39.60;35.42;;;;;;;-2.12;100.00;96795.00;5075580;28;20037;-62
2023/01/25 04:34:15;;;;;;;47.22;38.72;;;;;;;-2.10;100.00;96795.81;5084765;28;20035;-69
2023/01/25 04:36:40;;;;;;;44.28;37.95;;;;;;;-2.08;100.00;96788.88;5083993;28;20034;-61
2023/01/25 04:39:06;;;;;;;43.97;37.88;;;;;;;-2.07;100.00;96786.25;5084007;28;20131;-66
2023/01/25 04:41:31;;;;;;;50.83;41.67;;;;;;;-2.06;100.00;96787.97;5077566;28;20047;-66
2023/01/25 04:43:56;;;;;;;45.95;40.35;;;;;;;-2.05;100.00;96781.91;5084303;28;20111;-66
2023/01/25 04:46:22;;;;;;;45.25;38.35;;;;;;;-2.05;100.00;96788.78;5086910;28;20047;-66
2023/01/25 04:48:47;;;;;;;45.10;37.80;;;;;;;-2.03;100.00;96790.47;5077820;28;20035;-67
2023/01/25 04:51:13;;;;;;;43.47;38.67;;;;;;;-2.04;100.00;96791.34;5087073;28;20040;-67
2023/01/25 04:53:39;;;;;;;44.00;38.08;;;;;;;-2.02;100.00;96793.88;5076788;28;20032;-66
2023/01/25 04:56:05;;;;;;;42.25;37.72;;;;;;;-2.02;100.00;96784.41;5076365;28;20052;-61
2023/01/25 04:58:30;;;;;;;39.63;35.10;;;;;;;-2.00;100.00;96789.53;5082034;28;20042;-66
2023/01/25 05:01:00;;;;;;;38.90;34.35;;;;;;;-1.99;100.00;96793.81;5078311;28;20112;-66
2023/01/25 05:03:26;;;;;;;39.33;35.03;;;;;;;-2.00;100.00;96796.44;5084636;28;20020;-66
2023/01/25 05:05:51;;;;;;;46.75;37.00;;;;;;;-1.99;100.00;96788.66;5090075;28;20024;-66
2023/01/25 05:08:16;;;;;;;42.40;36.15;;;;;;;-2.02;100.00;96789.56;5086393;28;20027;-65
2023/01/25 05:10:42;;;;;;;43.10;35.10;;;;;;;-2.03;100.00;96781.84;5087259;28;20016;-67
2023/01/25 05:13:08;;;;;;;36.25;32.25;;;;;;;-1.99;100.00;96790.38;5083796;28;20371;-69
2023/01/25 05:15:33;;;;;;;48.42;42.90;;;;;;;-1.96;100.00;96793.75;5087540;28;20035;-62
2023/01/25 05:17:58;;;;;;;51.60;43.63;;;;;;;-1.95;100.00;96802.31;5083694;28;20093;-63
2023/01/25 05:20:24;;;;;;;46.35;35.70;;;;;;;-1.94;100.00;96796.28;5083065;28;20029;-63
2023/01/25 05:22:49;;;;;;;52.53;42.88;;;;;;;-1.91;100.00;96798.78;5090104;28;20212;-64
2023/01/25 05:27:59;;;;;;;36.42;32.50;;;;;;;-1.84;100.00;96800.34;5084581;28;20055;-63
2023/01/25 05:30:24;;;;;;;37.00;32.28;;;;;;;-1.83;100.00;96803.75;5090430;28;20473;-63
2023/01/25 05:32:49;;;;;;;36.45;32.42;;;;;;;-1.82;100.00;96806.31;5084807;28;20036;-70
2023/01/25 05:35:15;;;;;;;42.60;36.75;;;;;;;-1.88;100.00;96790.94;5080215;28;20028;-69
2023/01/25 05:37:40;;;;;;;41.40;35.40;;;;;;;-1.88;100.00;96796.13;5091006;28;20056;-68
2023/01/25 05:40:07;;;;;;;45.25;37.63;;;;;;;-1.86;100.00;96796.94;5092269;28;20084;-68
2023/01/25 05:42:33;;;;;;;47.05;39.55;;;;;;;-1.99;100.00;96790.38;5091948;28;20113;-68
2023/01/25 05:44:58;;;;;;;43.78;36.38;;;;;;;-1.93;100.00;96788.50;5092015;28;20481;-68
2023/01/25 05:47:24;;;;;;;41.08;36.65;;;;;;;-1.94;100.00;96788.53;5091806;28;20032;-68
2023/01/25 05:49:49;;;;;;;56.00;46.20;;;;;;;-1.96;100.00;96782.56;5092078;28;20031;-68
2023/01/25 05:52:16;;;;;;;73.32;60.80;;;;;;;-1.98;100.00;96784.34;5091344;28;20057;-62
2023/01/25 05:54:41;;;;;;;59.30;47.70;;;;;;;-2.06;100.00;96781.94;5074110;28;20069;-70
2023/01/25 05:57:07;;;;;;;46.42;39.13;;;;;;;-2.08;100.00;96779.41;5091290;28;21690;-63
2023/01/25 05:59:32;;;;;;;50.15;41.15;;;;;;;-2.16;100.00;96776.16;5091978;28;20020;-63
2023/01/25 06:01:57;;;;;;;45.20;40.20;;;;;;;-2.20;100.00;96787.44;5091331;28;20020;-63
2023/01/25 06:04:23;;;;;;;50.72;41.42;;;;;;;-2.14;100.00;96778.72;5091883;28;20103;-63
2023/01/25 06:06:48;;;;;;;41.20;36.03;;;;;;;-2.09;100.00;96771.69;5091620;28;20098;-63
2023/01/25 06:09:13;;;;;;;41.25;36.45;;;;;;;-2.15;100.00;96770.09;5091874;28;20119;-63
2023/01/25 06:11:42;;;;;;;47.65;42.47;;;;;;;-2.14;100.00;96771.78;5091426;28;20448;-66
2023/01/25 06:14:07;;;;;;;49.33;43.92;;;;;;;-2.09;100.00;96764.81;5091735;28;20028;-60
2023/01/25 06:16:32;;;;;;;41.95;37.38;;;;;;;-2.07;100.00;96770.78;5090972;28;20547;-69
2023/01/25 06:18:58;;;;;;;52.90;44.63;;;;;;;-2.00;100.00;96765.47;5091173;28;20569;-69
2023/01/25 06:21:23;;;;;;;53.20;47.22;;;;;;;-2.06;100.00;96771.63;5091184;28;20081;-68
2023/01/25 06:23:48;;;;;;;44.33;38.47;;;;;;;-2.08;100.00;96770.81;5090889;28;20035;-68
2023/01/25 06:26:14;;;;;;;43.75;36.63;;;;;;;-2.05;100.00;96766.44;5091420;28;20408;-68
2023/01/25 06:28:40;;;;;;;45.92;38.35;;;;;;;-2.07;100.00;96763.03;5091378;28;20474;-69
2023/01/25 06:31:11;;;;;;;42.03;36.50;;;;;;;-2.11;100.00;96763.97;5090758;28;20073;-62
2023/01/25 06:33:37;;;;;;;42.75;36.33;;;;;;;-2.12;100.00;96759.69;5091247;28;20016;-62
2023/01/25 06:36:05;;;;;;;42.92;37.83;;;;;;;-2.12;100.00;96766.63;5090930;28;20051;-67
2023/01/25 06:38:31;;;;;;;43.40;38.28;;;;;;;-1.96;100.00;96764.50;5091097;28;20054;-67
2023/01/25 06:41:02;;;;;;;48.03;40.75;;;;;;;-1.93;100.00;96765.28;5091069;28;20032;-67
2023/01/25 06:43:28;;;;;;;51.33;42.03;;;;;;;-2.04;100.00;96767.25;5090683;28;20039;-67
2023/01/25 06:45:57;;;;;;;55.13;45.13;;;;;;;-2.06;100.00;96775.06;5089641;28;20023;-67
2023/01/25 06:48:22;;;;;;;52.22;42.97;;;;;;;-2.09;100.00;96775.13;5091087;28;20073;-66
2023/01/25 06:50:59;;;;;;;52.05;42.33;;;;;;;-2.13;100.00;96768.31;5090845;28;20020;-68
2023/01/25 06:53:26;;;;;;;55.58;43.78;;;;;;;-2.19;100.00;96766.78;5090739;28;20031;-62
2023/01/25 06:55:59;;;;;;;52.63;40.67;;;;;;;-2.14;100.00;96768.38;5090292;28;20547;-62
2023/01/25 06:58:26;;;;;;;46.75;40.40;;;;;;;-2.18;100.00;96767.59;5090491;28;20028;-62
2023/01/25 07:00:51;;;;;;;55.78;43.58;;;;;;;-2.14;100.00;96771.78;5090501;28;20024;-62
2023/01/25 07:03:16;;;;;;;46.75;40.13;;;;;;;-2.23;100.00;96772.03;5090323;28;20072;-61
2023/01/25 07:05:42;;;;;;;50.53;39.72;;;;;;;-2.28;100.00;96771.31;5090058;28;20401;-61
2023/01/25 07:08:07;;;;;;;46.90;40.25;;;;;;;-2.20;100.00;96771.94;5086510;28;20401;-61
2023/01/25 07:10:32;;;;;;;47.15;40.22;;;;;;;-2.18;100.00;96771.03;5100100;28;20600;-68
2023/01/25 07:12:58;;;;;;;46.95;41.13;;;;;;;-2.23;100.00;96769.44;5093525;28;20042;-69
2023/01/25 07:15:23;;;;;;;56.45;46.80;;;;;;;-2.29;100.00;96769.59;5089945;28;20024;-73
2023/01/25 07:17:48;;;;;;;84.47;61.47;;;;;;;-2.27;100.00;96766.09;5096552;28;20421;-71
2023/01/25 07:20:14;;;;;;;130.50;83.93;;;;;;;-2.24;100.00;96765.19;5091467;28;20043;-71
2023/01/25 07:22:39;;;;;;;192.40;121.88;;;;;;;-2.18;100.00;96768.47;5093804;28;20026;-75
2023/01/25 07:25:05;;;;;;;154.45;97.85;;;;;;;-2.13;100.00;96770.91;5096876;28;20508;-77
2023/01/25 07:27:34;;;;;;;65.82;50.30;;;;;;;-2.25;100.00;96766.91;5093117;28;20401;-75
2023/01/25 07:30:00;;;;;;;56.75;45.20;;;;;;;-2.36;100.00;96768.91;5094130;28;20130;-64
2023/01/25 07:32:26;;;;;;;50.35;44.83;;;;;;;-2.33;100.00;96767.06;5088974;28;20099;-64
2023/01/25 07:34:51;;;;;;;55.42;45.88;;;;;;;-2.18;100.00;96767.59;5068635;28;20406;-63
2023/01/25 07:37:17;;;;;;;132.02;85.28;;;;;;;-2.22;100.00;96766.00;5089055;28;20378;-62
2023/01/25 07:39:47;;;;;;;97.07;66.15;;;;;;;-2.11;100.00;96761.41;5088836;28;20036;-63
2023/01/25 07:42:13;;;;;;;161.50;101.05;;;;;;;-2.27;100.00;96757.50;5086842;28;20016;-63
2023/01/25 07:44:38;;;;;;;111.03;77.55;;;;;;;-2.20;100.00;96752.19;5089155;28;20455;-63
2023/01/25 07:47:03;;;;;;;143.93;96.78;;;;;;;-2.23;100.00;96747.06;5089309;28;20111;-60
2023/01/25 07:49:29;;;;;;;68.80;52.28;;;;;;;-2.38;100.00;96753.44;5088548;28;20062;-65
2023/01/25 07:51:54;;;;;;;52.13;42.50;;;;;;;-2.47;100.00;96764.81;5089580;28;20024;-67
2023/01/25 07:54:19;;;;;;;73.60;50.45;;;;;;;-2.41;100.00;96748.38;5089828;28;20027;-66
2023/01/25 07:56:45;;;;;;;75.40;56.80;;;;;;;-2.32;100.00;96748.16;5088932;28;20561;-67
2023/01/25 07:59:11;;;;;;;91.45;71.13;;;;;;;-2.37;100.00;96755.13;5088769;28;20075;-67
2023/01/25 08:01:36;;;;;;;57.22;48.22;;;;;;;-2.35;100.00;96761.09;5089601;28;20027;-67
2023/01/25 08:04:03;;;;;;;86.90;69.00;;;;;;;-2.33;100.00;96759.34;5089311;28;20024;-67
2023/01/25 08:06:33;;;;;;;62.30;54.95;;;;;;;-2.11;100.00;96753.66;5086847;28;20030;-64
2023/01/25 08:08:59;;;;;;;55.38;48.00;;;;;;;-2.22;100.00;96755.66;5087583;28;20492;-60
2023/01/25 08:11:27;;;;;;;56.05;49.42;;;;;;;-2.28;100.00;96753.25;5089345;28;20039;-66
2023/01/25 08:13:52;;;;;;;56.70;50.30;;;;;;;-2.28;100.00;96753.25;5089436;28;20039;-66
2023/01/25 08:16:23;;;;;;;61.28;51.05;;;;;;;-2.11;100.00;96752.81;5089060;28;20409;-66
2023/01/25 08:18:50;;;;;;;55.55;46.92;;;;;;;-2.07;100.00;96755.31;5081636;28;20036;-66
2023/01/25 08:21:16;;;;;;;47.83;42.35;;;;;;;-2.15;100.00;96752.03;5088204;28;20051;-66
2023/01/25 08:23:41;;;;;;;54.78;44.45;;;;;;;-2.21;100.00;96754.78;5085141;28;20067;-66
2023/01/25 08:26:10;;;;;;;50.70;44.60;;;;;;;-2.19;100.00;96750.44;5087974;28;20032;-70
2023/01/25 08:28:35;;;;;;;47.38;41.83;;;;;;;-2.18;100.00;96745.25;5088233;28;20363;-65
2023/01/25 08:31:18;;;;;;;47.78;41.65;;;;;;;-2.19;100.00;96753.88;5086839;28;20027;-76
2023/01/25 08:33:45;;;;;;;48.92;41.95;;;;;;;-2.23;100.00;96749.66;5088774;28;20103;-76
2023/01/25 08:36:11;;;;;;;47.92;42.20;;;;;;;-2.23;100.00;96751.41;5089363;28;20107;-76
2023/01/25 08:38:38;;;;;;;48.65;41.92;;;;;;;-2.34;100.00;96744.75;5091359;28;20047;-77
2023/01/25 08:41:13;;;;;;;50.78;42.65;;;;;;;-2.24;100.00;96745.38;5087963;28;20493;-77
2023/01/25 08:43:38;;;;;;;44.08;39.25;;;;;;;-2.26;100.00;96743.72;5088573;28;20016;-75
2023/01/25 08:46:05;;;;;;;48.97;41.92;;;;;;;-2.25;100.00;96748.84;5088088;28;20054;-67
2023/01/25 08:48:30;;;;;;;48.55;42.00;;;;;;;-2.26;100.00;96736.00;5091597;28;20465;-62
2023/01/25 08:50:55;;;;;;;50.35;42.58;;;;;;;-2.11;100.00;96727.84;5085514;28;20142;-64
2023/01/25 08:53:21;;;;;;;52.47;42.58;;;;;;;-2.07;100.00;96724.31;5088617;28;20028;-64
2023/01/25 08:55:47;;;;;;;47.95;40.75;;;;;;;-1.99;100.00;96728.44;5088547;28;20028;-65
2023/01/25 08:58:15;;;;;;;49.95;41.53;;;;;;;-2.00;100.00;96726.75;5087850;28;20024;-64
2023/01/25 09:00:42;;;;;;;52.25;44.35;;;;;;;-1.93;100.00;96723.09;5087103;28;20490;-64
2023/01/25 09:03:09;;;;;;;48.80;40.20;;;;;;;-1.96;100.00;96725.78;5087335;28;20441;-65
2023/01/25 09:05:35;;;;;;;49.10;40.47;;;;;;;-1.92;100.00;96724.81;5090806;28;20047;-65
2023/01/25 09:08:02;;;;;;;45.78;39.45;;;;;;;-1.90;100.00;96718.72;5088466;28;20040;-66
2023/01/25 09:10:27;;;;;;;47.15;40.08;;;;;;;-1.84;100.00;96725.47;5091266;28;20034;-65
2023/01/25 09:12:52;;;;;;;46.35;38.03;;;;;;;-1.76;100.00;96720.94;5091636;28;20024;-65
2023/01/25 09:15:18;;;;;;;51.63;43.60;;;;;;;-1.87;100.00;96710.91;5092171;28;20024;-65
2023/01/25 09:17:43;;;;;;;49.35;41.95;;;;;;;-1.82;100.00;96712.50;5091942;28;20039;-65
2023/01/25 09:20:10;;;;;;;55.40;48.25;;;;;;;-1.81;100.00;96720.22;5091445;28;20019;-65
2023/01/25 09:22:35;;;;;;;49.78;42.25;;;;;;;-1.76;100.00;96712.34;5091818;28;20017;-65
2023/01/25 09:25:00;;;;;;;53.92;46.75;;;;;;;-1.69;100.00;96720.75;5091272;28;20042;-66
2023/01/25 09:27:26;;;;;;;44.53;39.67;;;;;;;-1.69;100.00;96718.19;5091232;28;20515;-65
2023/01/25 09:29:51;;;;;;;59.10;49.05;;;;;;;-1.63;100.00;96721.44;5090319;28;20035;-66
2023/01/25 09:32:16;;;;;;;55.30;44.60;;;;;;;-1.50;100.00;96723.72;5091238;28;20028;-65
2023/01/25 09:34:42;;;;;;;59.03;49.13;;;;;;;-1.48;100.00;96727.94;5090470;28;20028;-66
2023/01/25 09:37:07;;;;;;;47.40;41.75;;;;;;;-1.69;100.00;96724.22;5091273;28;20031;-65
2023/01/25 09:39:32;;;;;;;50.78;43.03;;;;;;;-1.69;100.00;96726.78;5076334;28;20137;-65
2023/01/25 09:42:35;;;;;;;47.05;41.80;;;;;;;-1.49;100.00;96728.81;5090924;28;20401;-65
2023/01/25 09:45:09;;;;;;;49.03;40.72;;;;;;;-1.49;100.00;96731.41;5084778;28;20032;-65
2023/01/25 09:47:58;;;;;;;47.35;42.20;;;;;;;-1.45;100.00;96727.84;5086348;28;20030;-66
2023/01/25 09:50:32;;;;;;;53.35;45.78;;;;;;;-1.45;100.00;96722.66;5091031;28;20032;-66
2023/01/25 09:53:12;;;;;;;62.58;52.83;;;;;;;-1.40;100.00;96729.47;5091035;28;20039;-66
2023/01/25 09:55:39;;;;;;;75.60;57.75;;;;;;;-1.38;100.00;96728.50;5091244;28;20032;-65
2023/01/25 09:58:12;;;;;;;69.85;53.17;;;;;;;-1.41;100.00;96731.19;5090945;28;20100;-66
2023/01/25 10:00:44;;;;;;;77.03;59.13;;;;;;;-1.34;100.00;96734.47;5089991;28;20066;-66
2023/01/25 10:03:31;;;;;;;83.15;59.75;;;;;;;-1.34;99.79;96729.28;5087654;28;20018;-70
2023/01/25 10:06:00;;;;;;;58.72;45.28;;;;;;;-1.38;100.00;96738.03;5090856;28;20140;-76
2023/01/25 10:08:38;;;;;;;82.80;58.65;;;;;;;-1.38;100.00;96732.84;5090697;28;20050;-75
2023/01/25 10:11:15;;;;;;;67.13;51.28;;;;;;;-1.28;100.00;96739.44;5090022;28;20016;-75
2023/01/25 10:13:42;;;;;;;58.05;48.58;;;;;;;-1.27;100.00;96733.38;5090823;28;20078;-76
2023/01/25 10:16:21;;;;;;;51.75;43.78;;;;;;;-1.31;100.00;96734.38;5091019;28;20031;-76
2023/01/25 10:18:58;;;;;;;78.13;60.05;;;;;;;-1.32;100.00;96735.25;5072807;28;20020;-76
2023/01/25 10:22:16;;;;;;;72.70;53.42;;;;;;;-1.36;99.86;96725.91;5088836;28;20047;-64
2023/01/25 10:24:51;;;;;;;49.97;40.42;;;;;;;-1.38;100.00;96728.50;5027618;28;20188;-64
2023/01/25 10:27:39;;;;;;;86.55;61.15;;;;;;;-1.41;100.00;96720.84;5027504;28;20032;-63
2023/01/25 10:30:22;;;;;;;62.95;44.83;;;;;;;-1.36;100.00;96720.72;5076315;28;20035;-63
2023/01/25 10:32:51;;;;;;;55.10;42.38;;;;;;;-1.25;100.00;96723.00;5089978;28;20028;-64
2023/01/25 10:35:20;;;;;;;57.65;44.83;;;;;;;-1.08;100.00;96717.34;5089503;28;20032;-65
2023/01/25 10:37:46;;;;;;;51.42;42.85;;;;;;;-0.98;99.58;96717.91;5087119;28;20044;-65
2023/01/25 10:40:11;;;;;;;44.15;38.22;;;;;;;-0.98;98.95;96713.63;5092255;28;20129;-65
2023/01/25 10:42:43;;;;;;;39.47;34.22;;;;;;;-0.99;99.24;96706.75;5090467;28;20062;-67
2023/01/25 10:45:14;;;;;;;42.03;33.47;;;;;;;-0.93;99.20;96709.16;5090476;28;20034;-65
2023/01/25 10:47:43;;;;;;;44.75;37.70;;;;;;;-0.88;98.20;96709.00;5090277;28;20532;-65
2023/01/25 10:50:09;;;;;;;39.85;35.55;;;;;;;-0.88;97.80;96703.84;5090467;28;20020;-66
2023/01/25 10:52:36;;;;;;;46.20;39.95;;;;;;;-0.87;97.61;96700.38;5090179;28;20164;-65
2023/01/25 10:55:22;;;;;;;57.42;48.83;;;;;;;-0.83;96.55;96693.34;5089871;28;20491;-65
2023/01/25 10:57:47;;;;;;;36.90;33.03;;;;;;;-0.83;96.85;96688.16;5088548;28;20020;-66
2023/01/25 11:00:23;;;;;;;37.55;33.45;;;;;;;-0.85;96.76;96679.63;5089564;28;20020;-70
2023/01/25 11:02:49;;;;;;;34.85;30.63;;;;;;;-0.80;95.56;96669.97;5090287;28;20024;-67
2023/01/25 11:05:26;;;;;;;31.98;28.58;;;;;;;-0.69;94.06;96669.63;5089910;28;20077;-69
2023/01/25 11:07:52;;;;;;;34.65;30.85;;;;;;;-0.46;95.04;96661.97;5089908;28;20020;-69
2023/01/25 11:10:37;;;;;;;39.92;34.38;;;;;;;-0.38;94.51;96653.97;5089210;28;20016;-68
2023/01/25 11:13:32;;;;;;;60.30;45.70;;;;;;;-0.40;94.41;96636.81;5088228;28;20137;-69
2023/01/25 11:16:00;;;;;;;36.22;32.42;;;;;;;-0.44;92.77;96641.22;5084365;28;20176;-69